Time;durP1;ratioP1;P1;durP2;ratioP2;P2;SDS_P1;SDS_P2;PMS_P1;PMS_P2;Temp;Humidity;BMP_temperature;BMP_pressure;BME280_temperature;BME280_humidity;BME280_pressure;Samples;Min_cycle;Max_cycle;Signal;HPM_P1;HPM_P2
2023/10/19 00:01:05;;;;;;;;;;;;;;;10.13;100.00;99449.06;5028364;28;19917;-77
2023/10/19 00:03:30;;;;;;;;;;;;;;;10.26;100.00;99451.59;5033263;28;39018;-75
2023/10/19 00:05:56;;;;;;;;;;;;;;;10.11;100.00;99443.88;5024447;28;20011;-77
2023/10/19 00:08:22;;;;;;;;;;;;;;;10.32;100.00;99443.06;5029771;28;19921;-77
2023/10/19 00:13:35;;;;;;;;;;;;;;;10.20;100.00;99439.59;5028117;28;19927;-76
2023/10/19 00:16:01;;;;;;;;;;;;;;;10.26;100.00;99444.44;5033402;28;19917;-75
2023/10/19 00:18:27;;;;;;;;;;;;;;;10.31;100.00;99431.56;5034552;28;19924;-78
2023/10/19 00:20:54;;;;;;;;;;;;;;;10.31;100.00;99430.72;5016479;28;20064;-74
2023/10/19 00:23:29;;;;;;;;;;;;;;;10.51;100.00;99427.19;5029673;28;19922;-77
2023/10/19 00:26:07;;;;;;;;;;;;;;;10.48;100.00;99424.78;5022052;28;19921;-76
2023/10/19 00:28:35;;;;;;;;;;;;;;;10.52;100.00;99422.72;5027147;28;19917;-75
2023/10/19 00:31:04;;;;;;;;;;;;;;;10.55;100.00;99406.47;5059798;28;20775;-76
2023/10/19 00:33:29;;;;;;;;;;;;;;;10.57;100.00;99416.00;5019206;28;19960;-76
2023/10/19 00:36:00;;;;;;;;;;;;;;;10.58;100.00;99412.34;5038014;28;19918;-76
2023/10/19 00:41:06;;;;;;;;;;;;;;;10.63;100.00;99407.47;5032032;28;19963;-74
2023/10/19 00:43:44;;;;;;;;;;;;;;;10.65;100.00;99393.19;5028854;28;19932;-78
2023/10/19 00:48:47;;;;;;;;;;;;;;;10.80;100.00;99389.19;5057736;28;19932;-74
2023/10/19 00:54:21;;;;;;;;;;;;;;;10.77;100.00;99389.44;5037168;28;19920;-78
2023/10/19 00:56:56;;;;;;;;;;;;;;;10.85;100.00;99386.97;5029375;28;19943;-76
2023/10/19 00:59:24;;;;;;;;;;;;;;;10.92;100.00;99377.44;5033267;28;19967;-80
2023/10/19 01:01:53;;;;;;;;;;;;;;;10.91;100.00;99377.56;5035320;28;19917;-77
2023/10/19 01:04:30;;;;;;;;;;;;;;;11.06;100.00;99373.53;5036190;28;19975;-78
2023/10/19 01:07:07;;;;;;;;;;;;;;;11.22;100.00;99379.19;5041488;28;19922;-76
2023/10/19 01:09:35;;;;;;;;;;;;;;;11.31;100.00;99381.03;5035821;28;19920;-79
2023/10/19 01:12:06;;;;;;;;;;;;;;;11.33;100.00;99384.41;5036180;28;19952;-77
2023/10/19 01:14:32;;;;;;;;;;;;;;;11.35;100.00;99384.28;5037074;28;19925;-78
2023/10/19 01:17:00;;;;;;;;;;;;;;;11.29;100.00;99376.81;5040886;28;20457;-76
2023/10/19 01:19:27;;;;;;;;;;;;;;;11.41;100.00;99365.88;5027801;28;19925;-76
2023/10/19 01:21:53;;;;;;;;;;;;;;;11.45;100.00;99365.63;5030937;28;20031;-77
2023/10/19 01:24:42;;;;;;;;;;;;;;;11.44;100.00;99355.91;5032840;28;19931;-77
2023/10/19 01:27:08;;;;;;;;;;;;;;;11.58;100.00;99353.66;5032167;28;19939;-77
2023/10/19 01:29:40;;;;;;;;;;;;;;;11.59;100.00;99343.81;5025767;28;19928;-76
2023/10/19 01:32:08;;;;;;;;;;;;;;;11.68;100.00;99341.16;5028426;28;19960;-77
2023/10/19 01:34:34;;;;;;;;;;;;;;;11.69;100.00;99339.31;5034971;28;20149;-75
2023/10/19 01:37:03;;;;;;;;;;;;;;;11.65;100.00;99341.44;5030946;28;19917;-75
2023/10/19 01:39:29;;;;;;;;;;;;;;;11.76;100.00;99343.13;5035356;28;19928;-79
2023/10/19 01:41:55;;;;;;;;;;;;;;;11.65;100.00;99340.59;5034098;28;19917;-76
2023/10/19 01:44:21;;;;;;;;;;;;;;;11.70;100.00;99329.47;5028717;28;20863;-77
2023/10/19 01:46:48;;;;;;;;;;;;;;;11.66;100.00;99332.44;5033605;28;20359;-79
2023/10/19 01:49:14;;;;;;;;;;;;;;;11.61;100.00;99323.19;5035876;28;20048;-76
2023/10/19 01:51:39;;;;;;;;;;;;;;;11.65;100.00;99327.25;5037021;28;19928;-79
2023/10/19 01:54:08;;;;;;;;;;;;;;;11.72;100.00;99340.88;5028272;28;19921;-76
2023/10/19 01:56:35;;;;;;;;;;;;;;;11.62;100.00;99333.72;5016183;28;19917;-80
2023/10/19 01:59:01;;;;;;;;;;;;;;;11.75;100.00;99322.75;5042067;28;20012;-76
2023/10/19 02:03:58;;;;;;;;;;;;;;;11.77;100.00;99320.78;5062068;28;20717;-79
2023/10/19 02:06:28;;;;;;;;;;;;;;;11.86;100.00;99313.78;5024965;28;19921;-74
2023/10/19 02:09:00;;;;;;;;;;;;;;;11.86;100.00;99319.94;5024839;28;19948;-75
2023/10/19 02:11:26;;;;;;;;;;;;;;;11.83;100.00;99317.56;5033372;28;19928;-77
2023/10/19 02:13:54;;;;;;;;;;;;;;;11.80;100.00;99317.00;5025705;28;19921;-75
2023/10/19 02:16:22;;;;;;;;;;;;;;;11.94;100.00;99316.53;5029001;28;19921;-76
2023/10/19 02:18:48;;;;;;;;;;;;;;;11.92;100.00;99316.69;5038327;28;19921;-77
2023/10/19 02:21:13;;;;;;;;;;;;;;;11.88;100.00;99315.28;5029454;28;20075;-77
2023/10/19 02:23:39;;;;;;;;;;;;;;;11.84;100.00;99311.22;5026594;28;19975;-78
2023/10/19 02:26:05;;;;;;;;;;;;;;;11.96;100.00;99316.44;5057951;28;19921;-79
2023/10/19 02:28:31;;;;;;;;;;;;;;;12.00;100.00;99328.47;5030832;28;20031;-78
2023/10/19 02:31:11;;;;;;;;;;;;;;;12.00;100.00;99312.47;5032563;28;20824;-80
2023/10/19 02:33:36;;;;;;;;;;;;;;;12.01;100.00;99308.81;5029941;28;19943;-76
2023/10/19 02:36:03;;;;;;;;;;;;;;;12.00;100.00;99310.66;5029330;28;19923;-75
2023/10/19 02:38:29;;;;;;;;;;;;;;;11.90;100.00;99308.00;5031766;28;19973;-76
2023/10/19 02:40:55;;;;;;;;;;;;;;;11.86;100.00;99311.94;5038231;28;20017;-78
2023/10/19 02:43:23;;;;;;;;;;;;;;;11.92;100.00;99316.69;5031821;28;19929;-77
2023/10/19 02:45:48;;;;;;;;;;;;;;;12.05;100.00;99320.88;5022321;28;19919;-78
2023/10/19 02:48:13;;;;;;;;;;;;;;;12.07;100.00;99311.75;5031558;28;28064;-77
2023/10/19 02:50:38;;;;;;;;;;;;;;;12.11;100.00;99321.16;5024143;28;19948;-77
2023/10/19 02:53:04;;;;;;;;;;;;;;;12.06;100.00;99315.41;5035670;28;19921;-75
2023/10/19 02:55:31;;;;;;;;;;;;;;;12.11;100.00;99307.81;5047812;28;19956;-76
2023/10/19 02:57:58;;;;;;;;;;;;;;;12.16;100.00;99302.03;5060638;28;19924;-77
2023/10/19 03:00:32;;;;;;;;;;;;;;;12.15;100.00;99306.53;5034881;28;19928;-77
2023/10/19 03:02:58;;;;;;;;;;;;;;;12.21;100.00;99310.47;5031044;28;19921;-79
2023/10/19 03:05:25;;;;;;;;;;;;;;;12.25;100.00;99300.28;5031736;28;20011;-77
2023/10/19 03:07:52;;;;;;;;;;;;;;;12.22;100.00;99305.94;5040843;28;19920;-78
2023/10/19 03:13:21;;;;;;;;;;;;;;;12.30;100.00;99312.25;5044477;28;19929;-77
2023/10/19 03:15:48;;;;;;;;;;;;;;;12.32;100.00;99322.78;5040459;28;20019;-75
2023/10/19 03:18:13;;;;;;;;;;;;;;;12.42;100.00;99324.44;5032819;28;19916;-76
2023/10/19 03:20:41;;;;;;;;;;;;;;;12.45;100.00;99320.66;5038755;28;23141;-77
2023/10/19 03:23:06;;;;;;;;;;;;;;;12.51;100.00;99321.88;5033219;28;19921;-77
2023/10/19 03:25:49;;;;;;;;;;;;;;;12.50;100.00;99320.19;5043345;28;19928;-77
2023/10/19 03:28:16;;;;;;;;;;;;;;;12.51;100.00;99322.72;5035045;28;20031;-75
2023/10/19 03:30:42;;;;;;;;;;;;;;;12.51;100.00;99320.06;5042254;28;19917;-77
2023/10/19 03:33:08;;;;;;;;;;;;;;;12.57;100.00;99322.13;5039610;28;19920;-74
2023/10/19 03:35:35;;;;;;;;;;;;;;;12.60;100.00;99321.84;5037926;28;19928;-75
2023/10/19 03:38:07;;;;;;;;;;;;;;;12.60;100.00;99320.97;5040896;28;19916;-77
2023/10/19 03:40:34;;;;;;;;;;;;;;;12.63;100.00;99323.38;5046644;28;19924;-77
2023/10/19 03:42:59;;;;;;;;;;;;;;;12.70;100.00;99313.75;5038238;28;19979;-76
2023/10/19 03:45:26;;;;;;;;;;;;;;;12.69;100.00;99312.91;5031257;28;20810;-76
2023/10/19 03:47:55;;;;;;;;;;;;;;;12.72;100.00;99306.44;5033873;28;19948;-76
2023/10/19 03:50:21;;;;;;;;;;;;;;;12.65;100.00;99308.88;5030071;28;19917;-76
2023/10/19 03:52:46;;;;;;;;;;;;;;;12.69;100.00;99312.06;5034090;28;19971;-76
2023/10/19 03:55:15;;;;;;;;;;;;;;;12.67;100.00;99312.22;5035315;28;19917;-76
2023/10/19 03:57:41;;;;;;;;;;;;;;;12.73;100.00;99304.59;5040379;28;19917;-77
2023/10/19 04:00:12;;;;;;;;;;;;;;;12.72;100.00;99294.91;5035894;28;19924;-74
2023/10/19 04:02:38;;;;;;;;;;;;;;;12.74;100.00;99296.41;5033574;28;20346;-77
2023/10/19 04:05:04;;;;;;;;;;;;;;;12.69;100.00;99288.00;5023298;28;20007;-75
2023/10/19 04:07:31;;;;;;;;;;;;;;;12.72;100.00;99290.41;5025070;28;20410;-78
2023/10/19 04:12:37;;;;;;;;;;;;;;;12.62;100.00;99276.22;5027668;28;19931;-79
2023/10/19 04:15:26;;;;;;;;;;;;;;;12.55;100.00;99275.13;5032179;28;19917;-78
2023/10/19 04:17:50;;;;;;;;;;;;;;;12.44;100.00;99276.16;5031418;28;20006;-75
2023/10/19 04:22:42;;;;;;;;;;;;;;;12.44;100.00;99270.81;5030994;28;20207;-77
2023/10/19 04:25:08;;;;;;;;;;;;;;;12.42;100.00;99270.13;5031972;28;19927;-76
2023/10/19 04:27:35;;;;;;;;;;;;;;;12.37;100.00;99269.75;5025350;28;19946;-78
2023/10/19 04:30:02;;;;;;;;;;;;;;;12.38;100.00;99272.25;5030229;28;19917;-76
2023/10/19 04:32:27;;;;;;;;;;;;;;;12.41;100.00;99285.34;5027403;28;19965;-76
2023/10/19 04:34:53;;;;;;;;;;;;;;;12.47;100.00;99291.09;5026279;28;20002;-76
2023/10/19 04:37:18;;;;;;;;;;;;;;;12.51;100.00;99282.63;5033493;28;19917;-77
2023/10/19 04:39:44;;;;;;;;;;;;;;;12.48;100.00;99277.56;5028519;28;19934;-77
2023/10/19 04:42:09;;;;;;;;;;;;;;;12.52;100.00;99275.44;5030500;28;19920;-76
2023/10/19 04:44:35;;;;;;;;;;;;;;;12.53;100.00;99275.28;5033602;28;19933;-78
2023/10/19 04:47:00;;;;;;;;;;;;;;;12.59;100.00;99273.84;5028350;28;19917;-76
2023/10/19 04:49:25;;;;;;;;;;;;;;;12.54;100.00;99262.75;5029896;28;20027;-76
2023/10/19 04:51:50;;;;;;;;;;;;;;;12.60;100.00;99273.72;5032066;28;20081;-76
2023/10/19 04:54:16;;;;;;;;;;;;;;;12.60;100.00;99267.50;5029262;28;19917;-75
2023/10/19 04:56:41;;;;;;;;;;;;;;;12.64;100.00;99267.06;5026214;28;27384;-76
2023/10/19 04:59:06;;;;;;;;;;;;;;;12.71;100.00;99272.66;5024476;28;19924;-76
2023/10/19 05:01:35;;;;;;;;;;;;;;;12.73;100.00;99275.19;5030634;28;20030;-76
2023/10/19 05:04:00;;;;;;;;;;;;;;;12.73;100.00;99267.16;5017239;28;19924;-76
2023/10/19 05:06:25;;;;;;;;;;;;;;;12.69;100.00;99267.44;5021558;28;19921;-77
2023/10/19 05:08:52;;;;;;;;;;;;;;;12.73;100.00;99269.84;5027932;28;32723;-76
2023/10/19 05:11:17;;;;;;;;;;;;;;;12.75;100.00;99273.19;5028229;28;19932;-76
2023/10/19 05:13:42;;;;;;;;;;;;;;;12.76;100.00;99283.75;5030860;28;19975;-77
2023/10/19 05:16:08;;;;;;;;;;;;;;;12.79;100.00;99270.06;5030081;28;20803;-76
2023/10/19 05:18:34;;;;;;;;;;;;;;;12.81;100.00;99268.09;5033715;28;20031;-77
2023/10/19 05:21:00;;;;;;;;;;;;;;;12.76;100.00;99273.06;5038279;28;19991;-76
2023/10/19 05:23:26;;;;;;;;;;;;;;;12.75;100.00;99271.38;5025312;28;20027;-76
2023/10/19 05:26:02;;;;;;;;;;;;;;;12.66;100.00;99269.59;5027221;28;19917;-79
2023/10/19 05:28:27;;;;;;;;;;;;;;;12.55;100.00;99270.66;5028149;28;19917;-77
2023/10/19 05:30:54;;;;;;;;;;;;;;;12.54;100.00;99268.09;5027000;28;20036;-75
2023/10/19 05:33:20;;;;;;;;;;;;;;;12.47;100.00;99267.03;5028527;28;19924;-79
2023/10/19 05:35:49;;;;;;;;;;;;;;;12.44;100.00;99279.69;5018951;28;19959;-77
2023/10/19 05:38:15;;;;;;;;;;;;;;;12.43;100.00;99275.31;5024915;28;22183;-78
2023/10/19 05:40:42;;;;;;;;;;;;;;;12.41;100.00;99281.81;5028368;28;19921;-78
2023/10/19 05:43:08;;;;;;;;;;;;;;;12.48;100.00;99276.72;5031912;28;20029;-79
2023/10/19 05:45:36;;;;;;;;;;;;;;;12.47;100.00;99291.09;5024890;28;20007;-75
2023/10/19 05:48:03;;;;;;;;;;;;;;;12.42;100.00;99291.53;5033469;28;19924;-76
2023/10/19 05:50:29;;;;;;;;;;;;;;;12.43;100.00;99296.72;5030010;28;20884;-77
2023/10/19 05:52:54;;;;;;;;;;;;;;;12.42;100.00;99291.53;5022774;28;19925;-77
2023/10/19 05:55:21;;;;;;;;;;;;;;;12.38;100.00;99296.31;5041043;28;21468;-76
2023/10/19 05:57:47;;;;;;;;;;;;;;;12.47;100.00;99301.78;5037279;28;19917;-77
2023/10/19 06:00:12;;;;;;;;;;;;;;;12.53;100.00;99293.16;5030962;28;20032;-75
2023/10/19 06:02:49;;;;;;;;;;;;;;;12.56;100.00;99296.38;5035313;28;19917;-75
2023/10/19 06:05:18;;;;;;;;;;;;;;;12.59;100.00;99298.75;5034666;28;19967;-77
2023/10/19 06:07:46;;;;;;;;;;;;;;;12.64;100.00;99299.16;5030896;28;20045;-76
2023/10/19 06:10:16;;;;;;;;;;;;;;;12.67;100.00;99304.22;5034474;28;20020;-77
2023/10/19 06:12:46;;;;;;;;;;;;;;;12.67;100.00;99314.06;5034518;28;20003;-76
2023/10/19 06:15:12;;;;;;;;;;;;;;;12.74;100.00;99311.63;5030167;28;19948;-78
2023/10/19 06:17:38;;;;;;;;;;;;;;;12.79;100.00;99320.06;5021745;28;19917;-78
2023/10/19 06:20:04;;;;;;;;;;;;;;;12.85;100.00;99320.31;5026362;28;19921;-75
2023/10/19 06:22:30;;;;;;;;;;;;;;;12.91;100.00;99330.41;5030192;28;19943;-76
2023/10/19 06:24:55;;;;;;;;;;;;;;;12.99;100.00;99326.13;5026331;28;19928;-77
2023/10/19 06:27:20;;;;;;;;;;;;;;;13.05;100.00;99334.44;5023525;28;29988;-76
2023/10/19 06:29:45;;;;;;;;;;;;;;;13.08;100.00;99336.78;5031729;28;20044;-76
2023/10/19 06:32:12;;;;;;;;;;;;;;;13.13;100.00;99339.00;5024945;28;19980;-77
2023/10/19 06:34:38;;;;;;;;;;;;;;;13.18;100.00;99339.41;5033936;28;20750;-77
2023/10/19 06:37:07;;;;;;;;;;;;;;;13.24;100.00;99335.31;5031520;28;19917;-77
2023/10/19 06:39:32;;;;;;;;;;;;;;;13.24;100.00;99332.63;5039510;28;19924;-78
2023/10/19 06:41:57;;;;;;;;;;;;;;;13.30;100.00;99329.34;5029410;28;21051;-78
2023/10/19 06:44:23;;;;;;;;;;;;;;;13.31;100.00;99321.19;5022279;28;19921;-76
2023/10/19 06:46:48;;;;;;;;;;;;;;;13.33;100.00;99327.22;5023577;28;20415;-77
2023/10/19 06:49:15;;;;;;;;;;;;;;;13.36;100.00;99320.72;5036036;28;26862;-76
2023/10/19 06:51:40;;;;;;;;;;;;;;;13.39;100.00;99333.78;5029417;28;20011;-76
2023/10/19 06:54:08;;;;;;;;;;;;;;;13.38;100.00;99326.75;5027919;28;34354;-77
2023/10/19 06:56:36;;;;;;;;;;;;;;;13.44;100.00;99335.00;5028686;28;19924;-77
2023/10/19 06:59:04;;;;;;;;;;;;;;;13.45;100.00;99334.03;5036960;28;19956;-77
2023/10/19 07:01:31;;;;;;;;;;;;;;;13.50;100.00;99335.41;5034142;28;20030;-74
2023/10/19 07:03:56;;;;;;;;;;;;;;;13.55;100.00;99331.25;5035011;28;19928;-76
2023/10/19 07:06:22;;;;;;;;;;;;;;;13.58;100.00;99330.97;5034865;28;19921;-78
2023/10/19 07:08:47;;;;;;;;;;;;;;;13.61;100.00;99333.34;5028143;28;19928;-77
2023/10/19 07:11:12;;;;;;;;;;;;;;;13.63;100.00;99335.88;5029689;28;19921;-77
2023/10/19 07:13:39;;;;;;;;;;;;;;;13.73;100.00;99339.31;5035983;28;19925;-78
2023/10/19 07:16:05;;;;;;;;;;;;;;;13.76;100.00;99340.84;5034136;28;20012;-77
2023/10/19 07:18:30;;;;;;;;;;;;;;;13.83;100.00;99342.75;5029526;28;19931;-75
2023/10/19 07:21:02;;;;;;;;;;;;;;;13.84;100.00;99344.41;5023328;28;19932;-77
2023/10/19 07:23:28;;;;;;;;;;;;;;;13.93;100.00;99346.16;5021302;28;19947;-78
2023/10/19 07:25:55;;;;;;;;;;;;;;;14.00;100.00;99343.69;5031508;28;20011;-76
2023/10/19 07:28:21;;;;;;;;;;;;;;;14.00;100.00;99343.69;5026751;28;19925;-78
2023/10/19 07:30:47;;;;;;;;;;;;;;;14.02;100.00;99346.25;5028427;28;19921;-77
2023/10/19 07:33:22;;;;;;;;;;;;;;;14.10;100.00;99344.44;5027837;28;19949;-76
2023/10/19 07:35:52;;;;;;;;;;;;;;;14.08;100.00;99337.56;5027097;28;20025;-78
2023/10/19 07:38:20;;;;;;;;;;;;;;;14.21;100.00;99330.81;5027022;28;20025;-78
2023/10/19 07:40:46;;;;;;;;;;;;;;;14.28;100.00;99327.47;5029930;28;19924;-76
2023/10/19 07:43:11;;;;;;;;;;;;;;;14.29;100.00;99337.19;5023300;28;19917;-77
2023/10/19 07:45:37;;;;;;;;;;;;;;;14.36;100.00;99328.38;5017280;28;19921;-76
2023/10/19 07:48:06;;;;;;;;;;;;;;;14.40;100.00;99324.34;5017348;28;19925;-77
2023/10/19 07:50:32;;;;;;;;;;;;;;;14.42;100.00;99322.38;5029155;28;19964;-76
2023/10/19 07:52:58;;;;;;;;;;;;;;;14.47;100.00;99320.09;5024330;28;20044;-77
2023/10/19 07:55:23;;;;;;;;;;;;;;;14.45;100.00;99324.72;5029122;28;19916;-76
2023/10/19 07:57:50;;;;;;;;;;;;;;;14.52;100.00;99324.13;5032750;28;20287;-76
2023/10/19 08:00:17;;;;;;;;;;;;;;;14.56;100.00;99326.34;5032538;28;20044;-77
2023/10/19 08:02:45;;;;;;;;;;;;;;;14.59;100.00;99320.63;5031290;28;20477;-78
2023/10/19 08:05:11;;;;;;;;;;;;;;;14.70;100.00;99322.19;5034010;28;21044;-76
2023/10/19 08:07:39;;;;;;;;;;;;;;;14.68;100.00;99319.69;5032903;28;19925;-76
2023/10/19 08:10:05;;;;;;;;;;;;;;;14.70;100.00;99304.25;5034470;28;19963;-76
2023/10/19 08:12:30;;;;;;;;;;;;;;;14.72;100.00;99304.09;5026962;28;19920;-77
2023/10/19 08:14:56;;;;;;;;;;;;;;;14.79;100.00;99312.34;5027585;28;20036;-76
2023/10/19 08:17:22;;;;;;;;;;;;;;;14.76;100.00;99305.47;5029388;28;19921;-78
2023/10/19 08:19:47;;;;;;;;;;;;;;;14.70;100.00;99301.56;5034272;28;19921;-76
2023/10/19 08:22:14;;;;;;;;;;;;;;;14.81;100.00;99308.50;5032258;28;19921;-79
2023/10/19 08:24:43;;;;;;;;;;;;;;;14.86;100.00;99299.94;5059625;28;19920;-77
2023/10/19 08:27:10;;;;;;;;;;;;;;;14.81;100.00;99297.78;5031809;28;20002;-78
2023/10/19 08:29:36;;;;;;;;;;;;;;;14.90;100.00;99295.94;5032951;28;19917;-78
2023/10/19 08:32:01;;;;;;;;;;;;;;;14.94;100.00;99299.97;5024058;28;19924;-76
2023/10/19 08:34:29;;;;;;;;;;;;;;;14.92;100.00;99300.16;5029495;28;19917;-76
2023/10/19 08:36:54;;;;;;;;;;;;;;;14.98;100.00;99302.19;5032291;28;20043;-76
2023/10/19 08:39:20;;;;;;;;;;;;;;;15.12;100.00;99298.03;5025302;28;19920;-77
2023/10/19 08:41:48;;;;;;;;;;;;;;;15.08;100.00;99299.34;5024276;28;19991;-76
2023/10/19 08:44:17;;;;;;;;;;;;;;;15.01;100.00;99288.44;5033408;28;19917;-77
2023/10/19 08:46:43;;;;;;;;;;;;;;;15.16;100.00;99295.84;5029105;28;20011;-75
2023/10/19 08:49:10;;;;;;;;;;;;;;;15.25;100.00;99286.78;5031339;28;19928;-77
2023/10/19 08:51:36;;;;;;;;;;;;;;;15.35;100.00;99275.91;5016039;28;19924;-78
2023/10/19 08:54:02;;;;;;;;;;;;;;;15.31;100.00;99278.06;5023070;28;19917;-78
2023/10/19 08:56:27;;;;;;;;;;;;;;;15.52;100.00;99278.44;5015557;28;19955;-77
2023/10/19 08:58:53;;;;;;;;;;;;;;;15.52;100.00;99267.69;5030318;28;19956;-77
2023/10/19 09:01:19;;;;;;;;;;;;;;;15.75;100.00;99259.81;5028235;28;19927;-76
2023/10/19 09:03:46;;;;;;;;;;;;;;;15.95;100.00;99254.06;5032013;28;19917;-77
2023/10/19 09:06:12;;;;;;;;;;;;;;;15.98;100.00;99246.50;5033519;28;19925;-77
2023/10/19 09:08:40;;;;;;;;;;;;;;;16.30;100.00;99242.06;5027542;28;20446;-77
2023/10/19 09:11:11;;;;;;;;;;;;;;;16.38;100.00;99236.66;5032038;28;19983;-77
2023/10/19 09:13:44;;;;;;;;;;;;;;;16.44;100.00;99238.63;5032585;28;19923;-78
2023/10/19 09:16:09;;;;;;;;;;;;;;;16.40;100.00;99231.09;5026985;28;19928;-77
2023/10/19 09:18:35;;;;;;;;;;;;;;;16.35;100.00;99220.00;5014105;28;19964;-77
2023/10/19 09:21:07;;;;;;;;;;;;;;;16.35;100.00;99226.22;5020541;28;19921;-77
2023/10/19 09:23:32;;;;;;;;;;;;;;;16.27;100.00;99229.81;5034531;28;20033;-78
2023/10/19 09:26:02;;;;;;;;;;;;;;;16.04;100.00;99231.53;5033287;28;19930;-75
2023/10/19 09:28:27;;;;;;;;;;;;;;;16.12;100.00;99230.69;5029176;28;19924;-77
2023/10/19 09:30:53;;;;;;;;;;;;;;;16.12;100.00;99238.75;5031951;28;33836;-76
2023/10/19 09:33:21;;;;;;;;;;;;;;;16.11;100.00;99240.59;5036596;28;19921;-77
2023/10/19 09:35:52;;;;;;;;;;;;;;;16.07;100.00;99235.75;5032857;28;19926;-77
2023/10/19 09:38:27;;;;;;;;;;;;;;;16.01;100.00;99245.31;5029319;28;19923;-77
2023/10/19 09:40:54;;;;;;;;;;;;;;;16.14;100.00;99242.94;5036487;28;20702;-76
2023/10/19 09:43:30;;;;;;;;;;;;;;;16.16;100.00;99248.13;5026402;28;19917;-78
2023/10/19 09:45:58;;;;;;;;;;;;;;;16.29;100.00;99249.28;5029939;28;19955;-76
2023/10/19 09:48:25;;;;;;;;;;;;;;;16.56;100.00;99249.84;5034587;28;19917;-76
2023/10/19 09:50:55;;;;;;;;;;;;;;;16.76;100.00;99243.06;5029539;28;19916;-76
2023/10/19 09:53:25;;;;;;;;;;;;;;;16.96;100.00;99224.59;5021921;28;20948;-76
2023/10/19 09:55:51;;;;;;;;;;;;;;;16.81;100.00;99221.81;5027701;28;19925;-77
2023/10/19 09:58:17;;;;;;;;;;;;;;;17.08;100.00;99212.41;5029765;28;19925;-76
2023/10/19 10:00:44;;;;;;;;;;;;;;;17.19;100.00;99210.31;5029763;28;19923;-77
2023/10/19 10:03:30;;;;;;;;;;;;;;;17.33;100.00;99204.97;5028355;28;19956;-76
2023/10/19 10:05:55;;;;;;;;;;;;;;;17.16;100.00;99199.88;5024838;28;19972;-77
2023/10/19 10:08:23;;;;;;;;;;;;;;;17.02;100.00;99196.97;5034859;28;19944;-76
2023/10/19 10:10:49;;;;;;;;;;;;;;;16.83;100.00;99208.19;5029195;28;20036;-76
2023/10/19 10:13:24;;;;;;;;;;;;;;;17.08;100.00;99209.72;5029184;28;19943;-77
2023/10/19 10:15:52;;;;;;;;;;;;;;;17.07;100.00;99213.44;5032606;28;20893;-77
2023/10/19 10:18:17;;;;;;;;;;;;;;;17.16;100.00;99214.19;5029317;28;20008;-79
2023/10/19 10:20:43;;;;;;;;;;;;;;;17.50;100.00;99213.75;5026239;28;19917;-76
2023/10/19 10:23:32;;;;;;;;;;;;;;;17.52;100.00;99218.97;5027091;28;19924;-77
2023/10/19 10:25:58;;;;;;;;;;;;;;;17.78;100.00;99205.13;5027951;28;19921;-77
2023/10/19 10:28:24;;;;;;;;;;;;;;;17.79;100.00;99209.50;5025546;28;19917;-77
2023/10/19 10:31:08;;;;;;;;;;;;;;;17.72;100.00;99200.41;5029465;28;19917;-78
2023/10/19 10:33:39;;;;;;;;;;;;;;;17.92;100.00;99198.03;5026152;28;20073;-78
2023/10/19 10:36:06;;;;;;;;;;;;;;;17.65;100.00;99197.63;5022267;28;19921;-76
2023/10/19 10:38:33;;;;;;;;;;;;;;;17.73;100.00;99194.88;5029195;28;19940;-76
2023/10/19 10:40:58;;;;;;;;;;;;;;;17.76;100.00;99199.06;5023676;28;20294;-76
2023/10/19 10:43:23;;;;;;;;;;;;;;;17.88;100.00;99203.00;5023849;28;33149;-76
2023/10/19 10:45:49;;;;;;;;;;;;;;;18.17;100.00;99198.63;5034624;28;35328;-77
2023/10/19 10:48:15;;;;;;;;;;;;;;;18.05;100.00;99190.16;5027610;28;20007;-77
2023/10/19 10:50:45;;;;;;;;;;;;;;;17.87;100.00;99185.13;5026452;28;19948;-76
2023/10/19 10:53:17;;;;;;;;;;;;;;;18.02;100.00;99194.09;5031441;28;19928;-77
2023/10/19 10:55:43;;;;;;;;;;;;;;;17.84;100.00;99189.03;5033563;28;19920;-76
2023/10/19 10:58:08;;;;;;;;;;;;;;;17.55;100.00;99172.78;5035136;28;20035;-76
2023/10/19 11:00:34;;;;;;;;;;;;;;;17.43;100.00;99168.88;5028013;28;19917;-76
2023/10/19 11:03:01;;;;;;;;;;;;;;;17.61;100.00;99166.66;5026148;28;19921;-76
2023/10/19 11:05:26;;;;;;;;;;;;;;;17.28;100.00;99174.22;5031886;28;19928;-76
2023/10/19 11:08:06;;;;;;;;;;;;;;;17.46;100.00;99160.41;5029963;28;19960;-76
2023/10/19 11:10:31;;;;;;;;;;;;;;;17.32;100.00;99157.50;5022118;28;19917;-76
2023/10/19 11:13:16;;;;;;;;;;;;;;;17.55;100.00;99143.13;5030120;28;19943;-76
2023/10/19 11:15:52;;;;;;;;;;;;;;;17.62;100.00;99138.69;5029303;28;20877;-77
2023/10/19 11:18:29;;;;;;;;;;;;;;;17.73;100.00;99137.44;5034148;28;19920;-77
2023/10/19 11:20:56;;;;;;;;;;;;;;;17.96;100.00;99140.03;5034505;28;19924;-76
2023/10/19 11:23:34;;;;;;;;;;;;;;;17.76;100.00;99137.88;5034461;28;19917;-77
2023/10/19 11:25:59;;;;;;;;;;;;;;;17.83;100.00;99146.09;5019280;28;20007;-75
2023/10/19 11:28:28;;;;;;;;;;;;;;;18.04;100.00;99139.94;5030127;28;23823;-76
2023/10/19 11:30:53;;;;;;;;;;;;;;;17.98;100.00;99138.81;5032063;28;19991;-76
2023/10/19 11:33:24;;;;;;;;;;;;;;;17.85;100.00;99149.41;5027319;28;20835;-75
2023/10/19 11:35:49;;;;;;;;;;;;;;;18.42;100.00;99140.59;5026289;28;19921;-77
2023/10/19 11:38:14;;;;;;;;;;;;;;;18.29;100.00;99135.91;5033777;28;19960;-76
2023/10/19 11:40:40;;;;;;;;;;;;;;;18.22;100.00;99140.38;5034277;28;19939;-77
2023/10/19 11:43:05;;;;;;;;;;;;;;;18.06;100.00;99137.88;5023691;28;20397;-76
2023/10/19 11:45:30;;;;;;;;;;;;;;;18.35;100.00;99128.91;5030576;28;19937;-75
2023/10/19 11:47:56;;;;;;;;;;;;;;;18.60;100.00;99132.09;5034588;28;19921;-76
2023/10/19 11:50:22;;;;;;;;;;;;;;;18.18;100.00;99135.56;5030609;28;19921;-75
2023/10/19 11:52:47;;;;;;;;;;;;;;;18.53;100.00;99132.03;5028000;28;19921;-76
2023/10/19 11:55:15;;;;;;;;;;;;;;;18.07;100.00;99124.22;5028609;28;19931;-75
2023/10/19 11:57:43;;;;;;;;;;;;;;;18.09;100.00;99124.84;5023063;28;19955;-77
2023/10/19 12:00:09;;;;;;;;;;;;;;;17.61;100.00;99126.22;5028784;28;21071;-76
2023/10/19 12:02:37;;;;;;;;;;;;;;;17.95;100.00;99127.56;5025475;28;19924;-76
2023/10/19 12:05:02;;;;;;;;;;;;;;;18.00;100.00;99125.16;5033022;28;19920;-76
2023/10/19 12:07:28;;;;;;;;;;;;;;;17.67;100.00;99121.94;5027070;28;19928;-76
2023/10/19 12:09:53;;;;;;;;;;;;;;;17.63;100.00;99121.50;5022879;28;23381;-75
2023/10/19 12:12:18;;;;;;;;;;;;;;;17.86;100.00;99124.13;5033919;28;19975;-75
2023/10/19 12:14:43;;;;;;;;;;;;;;;17.80;100.00;99120.31;5030420;28;19921;-76
2023/10/19 12:17:09;;;;;;;;;;;;;;;17.54;100.00;99120.75;5030119;28;31388;-75
2023/10/19 12:19:34;;;;;;;;;;;;;;;17.68;100.00;99118.25;5028546;28;19917;-75
2023/10/19 12:22:00;;;;;;;;;;;;;;;17.54;100.00;99128.81;5032135;28;19921;-75
2023/10/19 12:24:28;;;;;;;;;;;;;;;17.90;100.00;99113.81;5031024;28;20018;-75
2023/10/19 12:26:54;;;;;;;;;;;;;;;18.10;100.00;99101.41;5023854;28;19959;-76
2023/10/19 12:29:21;;;;;;;;;;;;;;;18.03;100.00;99103.22;5021366;28;19932;-76
2023/10/19 12:31:49;;;;;;;;;;;;;;;18.43;100.00;99106.38;5025724;28;19928;-75
2023/10/19 12:34:15;;;;;;;;;;;;;;;18.25;100.00;99104.09;5030950;28;19972;-76
2023/10/19 12:36:41;;;;;;;;;;;;;;;18.54;100.00;99112.09;5026213;28;19917;-75
2023/10/19 12:39:06;;;;;;;;;;;;;;;18.32;100.00;99100.47;5028469;28;20040;-74
2023/10/19 12:41:32;;;;;;;;;;;;;;;18.30;100.00;99115.97;5029339;28;19951;-75
2023/10/19 12:43:57;;;;;;;;;;;;;;;18.02;100.00;99110.47;5030954;28;19971;-75
2023/10/19 12:46:24;;;;;;;;;;;;;;;17.81;100.00;99100.41;5021680;28;19921;-75
2023/10/19 12:48:50;;;;;;;;;;;;;;;17.89;100.00;99107.56;5026323;28;20461;-76
2023/10/19 12:51:22;;;;;;;;;;;;;;;17.76;100.00;99094.75;5024837;28;20774;-75
2023/10/19 12:53:48;;;;;;;;;;;;;;;17.58;100.00;99092.41;5021062;28;19921;-76
2023/10/19 12:56:13;;;;;;;;;;;;;;;17.94;100.00;99090.84;5027338;28;19920;-75
2023/10/19 12:58:38;;;;;;;;;;;;;;;17.69;100.00;99085.69;5032309;28;20420;-74